KBNA/BNA METAR and TAF weather

Enter ICAO airport designator
Station Type Date Time Source
KBNA METAR 2018/07/16 23:53 UTC NOAA

KBNA 162353Z 11003KT 10SM SCT040 BKN090 BKN250 29/22 A2996 RMK AO2 SLP136 CB DSNT N AND E MOV SE T02890222 10339 20289 53003


Station Type Date Time Source
KBNA Decoded METAR 2018/07/16 23:53 UTC NOAA

NASHVILLE INTERNATIONAL AIRPORT, TN, United States (KBNA) 36-07N 086-41W 210M
Jul 16, 2018 - 07:53 PM EDT / 2018.07.16 2353 UTC
Wind: from the ESE (110 degrees) at 3 MPH (3 KT):0
Visibility: 10 mile(s):0
Sky conditions: mostly cloudy
Weather: Cumulonimbus clouds observed
Temperature: 84.0 F (28.9 C)
Dew Point: 72.0 F (22.2 C)
Relative Humidity: 67%
Pressure (altimeter): 29.96 in. Hg (1014 hPa)
Pressure tendency: 0.01 inches (0.3 hPa) higher than three hours ago
ob: KBNA 162353Z 11003KT 10SM SCT040 BKN090 BKN250 29/22 A2996 RMK AO2 SLP136 CB DSNT N AND E MOV SE T02890222 10339 20289 53003
cycle: 0

Station Type Date Time Source
KBNA TAF 2018/07/16 19:21 UTC NOAA

TAF
AMD KBNA 161918Z 1619/1718 26006KT P6SM SCT030 BKN250
FM162100 25006KT P6SM VCTS BKN050CB
FM170200 26005KT P6SM SCT100
FM171200 35004KT P6SM SCT030


Example: see airport list